This is the latest recevied weather packets stored in our database for station/object K8ZAS. If no packets are shown the sender has not sent any weather packets the latest 10 day(s).
| Time | Temp. | Humidity | Pressure | Rain* | Wind** | Luminosity | Snow |
|---|---|---|---|---|---|---|---|
| 1777824317 | 16.11° C | 37% | 1014.7 hPa | 0 mm | - | 707 W/m² | - |
| 1777822518 | 13.89° C | 41% | 1015.1 hPa | 0 mm | - | 608 W/m² | - |
| 1777821338 | 13.33° C | 42% | 1015.4 hPa | 0 mm | - | 545 W/m² | - |
| 1777820738 | 12.78° C | 43% | 1015.5 hPa | 0 mm | - | 511 W/m² | - |
| 1777819519 | 11.67° C | 47% | 1015.6 hPa | 0 mm | - | 366 W/m² | - |
| 1777816519 | 7.22° C | 59% | 1016.2 hPa | 0 mm | - | 74 W/m² | - |
| 1777810521 | 2.22° C | 72% | 1015.4 hPa | 0 mm | - | 9 W/m² | - |
| 1777809921 | 2.22° C | 71% | 1015.3 hPa | 0 mm | - | 3 W/m² | - |
| 1777807522 | 2.22° C | 72% | 1015.3 hPa | 0 mm | - | 0 W/m² | - |
| 1777806322 | 3.33° C | 68% | 1015.3 hPa | 0 mm | - | 0 W/m² | - |
| 1777794938 | 10° C | 40% | 1014.3 hPa | 0 mm | - | 0 W/m² | - |
| 1777793718 | 11.11° C | 37% | 1014.3 hPa | 0 mm | - | 0 W/m² | - |
| 1777790719 | 13.33° C | 31% | 1014.5 hPa | 0 mm | - | 0 W/m² | - |
| 1777788920 | 11.67° C | 36% | 1014.2 hPa | 0 mm | - | 0 W/m² | - |
| 1777787758 | 11.67° C | 36% | 1014 hPa | 0 mm | - | 0 W/m² | - |
| 1777779919 | 14.44° C | 24% | 1013.2 hPa | 0 mm | - | 0 W/m² | - |
| 1777774518 | 18.33° C | 16% | 1012.1 hPa | 0 mm | - | 4 W/m² | - |
| 1777770919 | 21.67° C | 12% | 1011.9 hPa | 0 mm | - | 60 W/m² | - |
| 1777764318 | 22.78° C | 13% | 1012.8 hPa | 0 mm | - | 315 W/m² | - |
| 1777762519 | 23.33° C | 13% | 1013 hPa | 0 mm | - | 442 W/m² | - |
| 1777757717 | 22.78° C | 13% | 1014.2 hPa | 0 mm | - | 787 W/m² | - |
| 1777757118 | 22.78° C | 14% | 1014.4 hPa | 0 mm | - | 793 W/m² | - |
| 1777756517 | 22.78° C | 14% | 1014.6 hPa | 0 mm | - | 821 W/m² | - |
| 1777755318 | 22.78° C | 14% | 1014.9 hPa | 0 mm | - | 893 W/m² | - |
| 1777750519 | 21.67° C | 16% | 1016.2 hPa | 0 mm | - | 1003 W/m² | - |
* Rain latest hour (hover to see other rain measurements)
** Current wind speed in m/s (hover to see current wind gust speed)